Time;durP1;ratioP1;P1;durP2;ratioP2;P2;SDS_P1;SDS_P2;PMS_P1;PMS_P2;Temp;Humidity;BMP_temperature;BMP_pressure;BME280_temperature;BME280_humidity;BME280_pressure;Samples;Min_cycle;Max_cycle;Signal;HPM_P1;HPM_P2
2022/12/06 00:01:12;;;;;;;40.80;30.87;;;1.90;99.90;;;;;;5056300;28;20967;-70
2022/12/06 00:03:40;;;;;;;55.80;32.43;;;1.90;99.90;;;;;;5063674;28;20474;-69
2022/12/06 00:06:08;;;;;;;43.30;29.90;;;1.90;99.90;;;;;;5064407;28;21035;-69
2022/12/06 00:08:37;;;;;;;50.03;31.67;;;2.00;99.90;;;;;;5056879;28;20804;-69
2022/12/06 00:11:06;;;;;;;48.20;32.43;;;1.80;99.90;;;;;;5059651;28;20456;-69
2022/12/06 00:13:34;;;;;;;76.33;30.57;;;1.90;99.90;;;;;;5058366;28;20466;-68
2022/12/06 00:16:03;;;;;;;85.93;33.63;;;1.90;99.90;;;;;;5052346;28;20469;-69
2022/12/06 00:18:31;;;;;;;75.33;33.47;;;2.00;99.90;;;;;;5062430;28;20558;-69
2022/12/06 00:21:04;;;;;;;117.50;32.60;;;2.10;99.90;;;;;;5063236;28;20485;-69
2022/12/06 00:23:31;;;;;;;104.23;37.03;;;2.10;99.90;;;;;;5056596;28;21018;-69
2022/12/06 00:26:03;;;;;;;114.50;37.50;;;2.10;99.90;;;;;;5061334;28;20513;-68
2022/12/06 00:28:30;;;;;;;121.50;36.70;;;2.10;99.90;;;;;;5056135;28;20464;-68
2022/12/06 00:30:58;;;;;;;120.67;35.47;;;2.10;99.90;;;;;;5060090;28;20459;-68
2022/12/06 00:33:25;;;;;;;104.30;36.33;;;2.10;99.90;;;;;;5059598;28;20468;-68
2022/12/06 00:35:55;;;;;;;113.50;35.10;;;2.00;99.90;;;;;;5060165;28;20487;-68
2022/12/06 00:38:22;;;;;;;77.87;34.67;;;2.10;99.90;;;;;;5058531;28;20474;-69
2022/12/06 00:40:49;;;;;;;74.93;34.13;;;2.20;99.90;;;;;;5060373;28;20456;-68
2022/12/06 00:43:17;;;;;;;76.87;36.13;;;2.20;99.90;;;;;;5056608;28;20478;-68
2022/12/06 00:45:44;;;;;;;50.10;32.40;;;2.30;99.90;;;;;;5062562;28;20483;-68
2022/12/06 00:48:10;;;;;;;75.27;34.07;;;2.30;99.90;;;;;;5059662;28;20789;-69
2022/12/06 00:50:38;;;;;;;48.40;31.77;;;2.30;99.90;;;;;;5058461;28;20488;-68
2022/12/06 00:53:05;;;;;;;90.50;31.13;;;2.20;99.90;;;;;;5061592;28;20468;-68
2022/12/06 00:55:32;;;;;;;60.33;33.93;;;2.30;99.90;;;;;;5058476;28;20583;-69
2022/12/06 00:57:59;;;;;;;71.50;33.70;;;2.30;99.90;;;;;;5059255;28;20468;-68
2022/12/06 01:00:27;;;;;;;87.67;36.03;;;2.30;99.90;;;;;;5062542;28;20467;-69
2022/12/06 01:02:54;;;;;;;58.63;32.30;;;2.30;99.90;;;;;;5058687;28;20466;-69
2022/12/06 01:05:21;;;;;;;88.03;32.53;;;2.30;99.90;;;;;;5066165;28;20497;-68
2022/12/06 01:07:48;;;;;;;59.47;33.27;;;2.30;99.90;;;;;;5061907;28;20462;-69
2022/12/06 01:10:15;;;;;;;42.83;31.53;;;2.30;99.90;;;;;;5056625;28;20811;-69
2022/12/06 01:12:42;;;;;;;54.70;34.27;;;2.40;99.90;;;;;;5052635;28;20845;-68
2022/12/06 01:15:10;;;;;;;47.20;32.37;;;2.40;99.90;;;;;;5061395;28;20538;-69
2022/12/06 01:17:38;;;;;;;67.13;32.73;;;2.40;99.90;;;;;;5065037;28;21057;-70
2022/12/06 01:20:06;;;;;;;53.53;32.30;;;2.40;99.90;;;;;;5056723;28;20471;-70
2022/12/06 01:22:33;;;;;;;53.33;32.93;;;2.50;99.90;;;;;;5059992;28;20462;-69
2022/12/06 01:25:00;;;;;;;63.20;34.53;;;2.20;99.90;;;;;;5057195;28;20479;-69
2022/12/06 01:27:27;;;;;;;48.53;35.53;;;2.40;99.90;;;;;;5059377;28;20463;-69
2022/12/06 01:29:53;;;;;;;51.47;33.40;;;2.40;99.90;;;;;;5059454;28;20471;-69
2022/12/06 01:32:21;;;;;;;53.03;33.87;;;2.50;99.90;;;;;;5060697;28;20467;-70
2022/12/06 01:34:51;;;;;;;54.30;33.57;;;2.40;99.90;;;;;;5057138;28;20467;-69
2022/12/06 01:37:18;;;;;;;49.20;34.00;;;2.50;99.90;;;;;;5059590;28;20984;-69
2022/12/06 01:39:45;;;;;;;44.73;31.43;;;2.50;99.90;;;;;;5054057;28;20629;-69
2022/12/06 01:42:13;;;;;;;46.07;31.77;;;2.40;99.90;;;;;;5062641;28;20815;-69
2022/12/06 01:44:43;;;;;;;42.13;32.90;;;2.50;99.90;;;;;;5058889;28;20459;-70
2022/12/06 01:47:17;;;;;;;51.40;31.00;;;2.50;99.90;;;;;;5055132;28;20466;-69
2022/12/06 01:49:47;;;;;;;65.43;30.43;;;2.50;99.90;;;;;;5056310;28;21002;-70
2022/12/06 01:52:16;;;;;;;58.67;33.77;;;2.50;99.90;;;;;;5053270;28;20471;-69
2022/12/06 01:54:43;;;;;;;74.27;34.20;;;2.50;99.90;;;;;;5060284;28;20982;-70
2022/12/06 01:57:13;;;;;;;53.07;33.47;;;2.70;99.90;;;;;;5061873;28;20471;-69
2022/12/06 01:59:41;;;;;;;69.97;34.93;;;2.60;99.90;;;;;;5057542;28;20459;-69
2022/12/06 02:02:09;;;;;;;118.90;38.33;;;2.60;99.90;;;;;;5056722;28;20541;-69
2022/12/06 02:04:36;;;;;;;88.17;36.37;;;2.60;99.90;;;;;;5059437;28;20466;-68
2022/12/06 02:07:03;;;;;;;208.43;42.67;;;2.70;99.90;;;;;;5060997;28;20500;-69
2022/12/06 02:09:32;;;;;;;155.87;39.00;;;2.70;99.90;;;;;;5055300;28;20464;-70
2022/12/06 02:12:01;;;;;;;109.33;35.30;;;2.70;99.90;;;;;;5053603;28;20463;-68
2022/12/06 02:14:30;;;;;;;110.87;33.10;;;2.80;99.90;;;;;;5054309;28;20464;-70
2022/12/06 02:17:19;;;;;;;88.47;32.17;;;2.80;99.90;;;;;;5063808;28;20473;-68
2022/12/06 02:20:05;;;;;;;156.23;35.03;;;2.80;99.90;;;;;;5061378;28;20463;-68
2022/12/06 02:22:58;;;;;;;98.97;35.23;;;2.70;99.90;;;;;;5055897;28;20486;-69
2022/12/06 02:25:46;;;;;;;77.57;31.33;;;2.70;99.90;;;;;;5049806;28;20491;-69
2022/12/06 02:28:34;;;;;;;98.40;33.40;;;2.90;99.90;;;;;;5048023;28;20961;-69
2022/12/06 02:31:07;;;;;;;158.47;35.83;;;2.90;99.90;;;;;;5059932;28;20464;-68
2022/12/06 02:33:39;;;;;;;137.57;36.00;;;2.90;99.90;;;;;;5057629;28;20470;-70
2022/12/06 02:36:11;;;;;;;108.10;33.37;;;2.90;99.90;;;;;;5051630;28;20474;-69
2022/12/06 02:38:46;;;;;;;42.47;31.50;;;2.90;99.90;;;;;;5051619;28;20455;-70
2022/12/06 02:41:21;;;;;;;65.83;30.17;;;2.90;99.90;;;;;;5058242;28;20471;-70
2022/12/06 02:43:53;;;;;;;55.83;29.60;;;2.80;99.90;;;;;;5054888;28;20980;-68
2022/12/06 02:46:24;;;;;;;51.03;32.10;;;3.00;99.90;;;;;;5050538;28;20494;-68
2022/12/06 02:48:53;;;;;;;41.20;29.73;;;2.90;99.90;;;;;;5051926;28;20466;-69
2022/12/06 02:51:20;;;;;;;34.70;27.53;;;2.80;99.90;;;;;;5069321;28;20484;-69
2022/12/06 02:53:51;;;;;;;41.47;30.87;;;3.00;99.90;;;;;;5055802;28;20466;-69
2022/12/06 02:56:19;;;;;;;33.60;30.00;;;3.00;99.90;;;;;;5055390;28;20479;-70
2022/12/06 02:58:47;;;;;;;44.60;27.57;;;3.10;99.90;;;;;;5059269;28;20873;-69
2022/12/06 03:01:17;;;;;;;39.13;28.60;;;3.10;99.90;;;;;;5053395;28;21387;-70
2022/12/06 03:04:30;;;;;;;34.30;30.80;;;3.00;99.90;;;;;;5050329;28;20468;-69
2022/12/06 03:07:12;;;;;;;34.47;29.03;;;3.10;99.90;;;;;;5061506;28;20498;-70
2022/12/06 03:09:52;;;;;;;33.00;27.90;;;3.10;99.90;;;;;;5055616;28;20460;-69
2022/12/06 03:12:27;;;;;;;68.40;29.07;;;3.10;99.90;;;;;;5061026;28;20953;-70
2022/12/06 03:15:05;;;;;;;31.37;27.27;;;3.20;99.90;;;;;;5054911;28;20474;-70
2022/12/06 03:17:39;;;;;;;35.80;26.77;;;3.20;99.90;;;;;;5052126;28;20460;-69
2022/12/06 03:20:12;;;;;;;33.00;27.30;;;3.20;99.90;;;;;;5057758;28;20462;-69
2022/12/06 03:22:46;;;;;;;37.97;29.10;;;3.20;99.90;;;;;;5059485;28;20828;-70
2022/12/06 03:25:14;;;;;;;37.73;28.97;;;3.30;99.90;;;;;;5051535;28;20467;-70
2022/12/06 03:27:43;;;;;;;53.87;30.73;;;3.20;99.90;;;;;;5063956;28;20474;-70
2022/12/06 03:30:12;;;;;;;35.63;27.77;;;3.20;99.90;;;;;;5053341;28;20559;-69
2022/12/06 03:32:44;;;;;;;34.23;27.77;;;3.30;99.90;;;;;;5055510;28;21000;-70
2022/12/06 03:35:14;;;;;;;147.63;33.67;;;3.40;99.90;;;;;;5053376;28;20767;-71
2022/12/06 03:37:47;;;;;;;77.60;31.50;;;3.40;99.90;;;;;;5057199;28;20470;-70
2022/12/06 03:40:19;;;;;;;65.57;28.00;;;3.30;99.90;;;;;;5056877;28;20471;-70
2022/12/06 03:42:48;;;;;;;74.90;30.10;;;3.30;99.90;;;;;;5058382;28;20487;-71
2022/12/06 03:45:15;;;;;;;93.73;30.87;;;3.30;99.90;;;;;;5050633;28;20470;-69
2022/12/06 03:47:51;;;;;;;122.83;33.07;;;3.50;99.90;;;;;;5058271;28;20458;-70
2022/12/06 03:50:24;;;;;;;90.57;35.20;;;3.40;99.90;;;;;;5055501;28;20489;-69
2022/12/06 03:52:52;;;;;;;90.60;30.80;;;3.40;99.90;;;;;;5058184;28;20462;-70
2022/12/06 03:55:20;;;;;;;79.43;35.27;;;3.50;99.90;;;;;;5053149;28;21219;-69
2022/12/06 03:57:46;;;;;;;119.33;33.70;;;3.50;99.90;;;;;;5057890;28;20471;-70
2022/12/06 04:00:15;;;;;;;96.37;32.30;;;3.70;99.90;;;;;;5054774;28;20463;-68
2022/12/06 04:02:42;;;;;;;109.27;33.40;;;3.60;99.90;;;;;;5058043;28;20558;-70
2022/12/06 04:05:09;;;;;;;53.80;30.30;;;3.50;99.90;;;;;;5051028;28;20490;-71
2022/12/06 04:07:36;;;;;;;133.93;35.07;;;3.70;99.90;;;;;;5057770;28;20499;-70
2022/12/06 04:10:07;;;;;;;94.30;31.57;;;3.50;99.90;;;;;;5060517;28;20508;-71
2022/12/06 04:15:21;;;;;;;69.73;30.53;;;3.60;99.90;;;;;;5052922;28;20454;-70
2022/12/06 04:23:02;;;;;;;103.03;33.70;;;3.50;99.90;;;;;;5063844;28;21014;-71
2022/12/06 04:23:34;;;;;;;94.50;33.90;;;3.50;99.90;;;;;;5058880;28;20458;-70
2022/12/06 04:26:03;;;;;;;104.17;34.10;;;3.50;99.90;;;;;;5052948;28;20572;-70
2022/12/06 04:39:30;;;;;;;122.73;35.53;;;3.80;99.90;;;;;;5055422;28;20501;-68
2022/12/06 04:44:43;;;;;;;113.20;35.83;;;3.80;99.90;;;;;;5060006;28;20504;-69
2022/12/06 04:47:11;;;;;;;148.57;37.37;;;3.70;99.90;;;;;;5054809;28;20845;-69
2022/12/06 04:49:38;;;;;;;123.03;36.23;;;3.80;99.90;;;;;;5061216;28;20494;-70
2022/12/06 04:52:06;;;;;;;209.13;38.23;;;3.80;99.90;;;;;;5062107;28;20487;-69
2022/12/06 04:54:33;;;;;;;209.50;36.73;;;3.90;99.90;;;;;;5058598;28;20459;-70
2022/12/06 04:57:03;;;;;;;259.50;39.20;;;3.80;99.90;;;;;;5052471;28;20475;-69
2022/12/06 04:59:30;;;;;;;331.57;44.17;;;3.80;99.90;;;;;;5061066;28;20463;-71
2022/12/06 05:01:57;;;;;;;214.70;38.40;;;3.90;99.90;;;;;;5054765;28;20684;-69
2022/12/06 05:04:24;;;;;;;243.53;39.30;;;3.80;99.90;;;;;;5061420;28;20837;-70
2022/12/06 05:06:51;;;;;;;244.03;39.80;;;3.80;99.90;;;;;;5066688;28;20566;-69
2022/12/06 05:09:18;;;;;;;259.73;38.90;;;4.00;99.90;;;;;;5060287;28;20650;-70
2022/12/06 05:11:46;;;;;;;293.90;39.50;;;4.10;99.90;;;;;;5054337;28;20474;-70
2022/12/06 05:14:14;;;;;;;173.10;37.50;;;4.00;99.90;;;;;;5060315;28;20463;-71
2022/12/06 05:16:41;;;;;;;333.10;44.30;;;3.90;99.90;;;;;;5058347;28;20470;-71
2022/12/06 05:19:08;;;;;;;250.00;42.17;;;3.90;99.90;;;;;;5061115;28;22464;-71
2022/12/06 05:21:35;;;;;;;202.23;42.00;;;4.00;99.90;;;;;;5054961;28;20552;-71
2022/12/06 05:24:02;;;;;;;224.40;42.50;;;4.00;99.90;;;;;;5063079;28;20466;-70
2022/12/06 05:26:30;;;;;;;153.40;37.23;;;4.00;99.90;;;;;;5059018;28;20826;-71
2022/12/06 05:28:57;;;;;;;93.07;34.40;;;4.00;99.90;;;;;;5060423;28;20555;-70
2022/12/06 05:31:26;;;;;;;166.27;39.57;;;4.00;99.90;;;;;;5054835;28;20460;-70
2022/12/06 05:33:54;;;;;;;74.00;32.17;;;4.00;99.90;;;;;;5059593;28;20471;-70
2022/12/06 05:36:22;;;;;;;82.30;32.97;;;4.00;99.90;;;;;;5052965;28;20478;-71
2022/12/06 05:38:50;;;;;;;116.63;37.03;;;3.90;99.90;;;;;;5055681;28;20462;-70
2022/12/06 05:41:17;;;;;;;140.13;37.67;;;3.90;99.90;;;;;;5052293;28;20475;-71
2022/12/06 05:43:44;;;;;;;73.20;33.50;;;3.90;99.90;;;;;;5058603;28;20468;-71
2022/12/06 05:46:11;;;;;;;51.80;32.43;;;3.90;99.90;;;;;;5061195;28;20550;-70
2022/12/06 05:48:39;;;;;;;54.90;33.57;;;4.00;99.90;;;;;;5055597;28;20536;-70
2022/12/06 05:51:06;;;;;;;43.43;31.27;;;4.00;99.90;;;;;;5055098;28;20485;-71
2022/12/06 05:53:33;;;;;;;44.87;31.83;;;4.10;99.90;;;;;;5055613;28;21319;-70
2022/12/06 05:56:05;;;;;;;36.70;30.70;;;4.00;99.90;;;;;;5056958;28;20993;-71
2022/12/06 05:58:33;;;;;;;40.33;31.30;;;4.00;99.90;;;;;;5054577;28;20908;-71
2022/12/06 06:00:59;;;;;;;38.50;31.00;;;4.00;99.90;;;;;;5061043;28;20819;-70
2022/12/06 06:03:26;;;;;;;33.80;30.10;;;4.00;99.90;;;;;;5058280;28;20470;-71
2022/12/06 06:05:58;;;;;;;63.07;32.47;;;4.10;99.90;;;;;;5057040;28;20566;-71
2022/12/06 06:08:24;;;;;;;38.97;29.90;;;4.00;99.90;;;;;;5052723;28;21003;-69
2022/12/06 06:10:51;;;;;;;48.53;32.27;;;3.90;99.90;;;;;;5052523;28;20465;-70
2022/12/06 06:13:18;;;;;;;38.60;32.50;;;4.00;99.90;;;;;;5058228;28;20466;-69
2022/12/06 06:15:44;;;;;;;39.17;29.77;;;4.10;99.90;;;;;;5060279;28;20471;-69
2022/12/06 06:18:11;;;;;;;34.13;30.10;;;4.20;99.90;;;;;;5057325;28;20991;-69
2022/12/06 06:20:38;;;;;;;40.67;30.97;;;4.10;99.90;;;;;;5061395;28;20460;-71
2022/12/06 06:23:06;;;;;;;48.17;32.10;;;4.10;99.90;;;;;;5060416;28;20847;-69
2022/12/06 06:25:33;;;;;;;69.77;32.30;;;4.00;99.90;;;;;;5057575;28;20467;-71
2022/12/06 06:28:00;;;;;;;74.97;31.83;;;4.10;99.90;;;;;;5048806;28;20835;-71
2022/12/06 06:30:27;;;;;;;57.83;30.90;;;4.10;99.90;;;;;;5058932;28;20486;-69
2022/12/06 06:32:54;;;;;;;60.43;31.40;;;4.10;99.90;;;;;;5054707;28;20541;-69
2022/12/06 06:35:21;;;;;;;62.30;30.47;;;4.10;99.90;;;;;;5053794;28;20465;-70
2022/12/06 06:37:48;;;;;;;45.77;30.90;;;4.20;99.90;;;;;;5051871;28;21008;-71
2022/12/06 06:40:17;;;;;;;49.90;32.47;;;4.20;99.90;;;;;;5053136;28;20464;-69
2022/12/06 06:42:43;;;;;;;40.57;32.50;;;4.20;99.90;;;;;;5053484;28;20815;-71
2022/12/06 06:45:11;;;;;;;63.13;32.87;;;4.20;99.90;;;;;;5053213;28;20459;-71
2022/12/06 06:47:38;;;;;;;51.90;32.30;;;4.20;99.90;;;;;;5054985;28;20483;-70
2022/12/06 06:50:05;;;;;;;94.00;34.67;;;4.30;99.90;;;;;;5056857;28;20468;-68
2022/12/06 06:52:32;;;;;;;91.70;34.40;;;4.20;99.90;;;;;;5055559;28;20474;-70
2022/12/06 06:54:59;;;;;;;62.50;32.60;;;4.30;99.90;;;;;;5056637;28;20462;-70
2022/12/06 06:57:27;;;;;;;100.73;34.03;;;4.40;99.90;;;;;;5052876;28;20454;-71
2022/12/06 06:59:55;;;;;;;63.30;30.97;;;4.30;99.90;;;;;;5056834;28;20459;-71
2022/12/06 07:02:22;;;;;;;90.50;33.73;;;4.30;99.90;;;;;;5061662;28;20471;-70
2022/12/06 07:04:49;;;;;;;137.10;34.30;;;4.30;99.90;;;;;;5059135;28;20472;-68
2022/12/06 07:07:16;;;;;;;44.83;31.00;;;4.40;99.90;;;;;;5054065;28;20625;-70
2022/12/06 07:09:43;;;;;;;71.30;32.90;;;4.40;99.90;;;;;;5052041;28;20465;-70
2022/12/06 07:12:11;;;;;;;35.77;29.97;;;4.40;99.90;;;;;;5056282;28;20468;-70
2022/12/06 07:14:39;;;;;;;53.80;32.13;;;4.60;99.90;;;;;;5056272;28;20475;-70
2022/12/06 07:17:06;;;;;;;54.90;31.20;;;4.60;99.90;;;;;;5060657;28;20999;-71
2022/12/06 07:19:33;;;;;;;72.73;33.33;;;4.50;99.90;;;;;;5054761;28;20462;-69
2022/12/06 07:22:00;;;;;;;57.10;31.53;;;4.60;99.90;;;;;;5051090;28;20474;-71
2022/12/06 07:24:26;;;;;;;43.80;32.03;;;4.60;99.90;;;;;;5061310;28;20454;-71
2022/12/06 07:26:55;;;;;;;46.93;31.47;;;4.60;99.90;;;;;;5058780;28;20479;-70
2022/12/06 07:29:23;;;;;;;38.30;30.07;;;4.70;99.90;;;;;;5052886;28;20590;-69
2022/12/06 07:31:51;;;;;;;34.00;30.50;;;4.70;99.90;;;;;;5050629;28;20464;-71
2022/12/06 07:34:18;;;;;;;49.57;31.57;;;4.70;99.90;;;;;;5054399;28;20880;-71
2022/12/06 07:36:45;;;;;;;40.17;29.97;;;4.80;99.90;;;;;;5059253;28;20666;-71
2022/12/06 07:39:12;;;;;;;38.93;32.50;;;4.80;99.90;;;;;;5054461;28;20866;-70
2022/12/06 07:47:10;;;;;;;34.07;30.10;;;4.80;99.90;;;;;;5058390;28;20870;-70
2022/12/06 07:49:36;;;;;;;37.53;29.57;;;4.80;99.90;;;;;;5056342;28;20462;-70
2022/12/06 07:52:03;;;;;;;44.80;32.33;;;4.80;99.90;;;;;;5056342;28;20578;-70
2022/12/06 07:54:30;;;;;;;44.07;30.13;;;4.80;99.90;;;;;;5061444;28;21134;-70
2022/12/06 07:56:57;;;;;;;35.00;29.33;;;4.90;99.90;;;;;;5051372;28;20473;-69
2022/12/06 07:59:24;;;;;;;37.00;33.30;;;4.90;99.90;;;;;;5065506;28;20464;-70
2022/12/06 08:01:53;;;;;;;33.87;30.83;;;5.00;99.90;;;;;;5055845;28;21043;-70
2022/12/06 08:04:21;;;;;;;32.10;29.23;;;5.00;99.90;;;;;;5059091;28;20476;-70
2022/12/06 08:06:48;;;;;;;35.23;28.20;;;4.90;99.90;;;;;;5064392;28;20531;-71
2022/12/06 08:09:15;;;;;;;34.23;29.20;;;4.80;99.90;;;;;;5056444;28;20479;-70
2022/12/06 08:11:42;;;;;;;36.67;31.93;;;4.80;99.90;;;;;;5058573;28;20469;-71
2022/12/06 08:14:10;;;;;;;30.47;27.40;;;4.90;99.90;;;;;;5058438;28;20461;-70
2022/12/06 08:16:39;;;;;;;28.77;25.63;;;5.00;99.90;;;;;;5057707;28;20470;-70
2022/12/06 08:19:06;;;;;;;28.40;25.60;;;5.00;99.90;;;;;;5058396;28;20469;-71
2022/12/06 08:21:34;;;;;;;29.53;26.53;;;5.00;99.90;;;;;;5063074;28;20465;-70
2022/12/06 08:24:02;;;;;;;26.40;24.10;;;5.10;99.90;;;;;;5060506;28;20809;-71
2022/12/06 08:26:30;;;;;;;26.80;24.10;;;5.10;99.90;;;;;;5053697;28;20455;-70
2022/12/06 08:28:59;;;;;;;26.03;23.67;;;5.20;99.90;;;;;;5055673;28;20530;-70
2022/12/06 08:31:27;;;;;;;26.30;23.80;;;5.20;99.90;;;;;;5059754;28;20467;-71
2022/12/06 08:33:54;;;;;;;25.83;23.07;;;5.10;99.90;;;;;;5052272;28;20482;-70
2022/12/06 08:36:22;;;;;;;25.63;22.40;;;5.30;99.90;;;;;;5059999;28;20474;-71
2022/12/06 08:38:52;;;;;;;25.47;22.73;;;5.30;99.90;;;;;;5062921;28;20464;-71
2022/12/06 08:44:04;;;;;;;27.53;22.47;;;5.20;99.90;;;;;;5059917;28;20458;-70
2022/12/06 08:46:33;;;;;;;30.63;22.97;;;5.30;99.90;;;;;;5059582;28;20467;-71
2022/12/06 08:49:01;;;;;;;31.67;23.50;;;5.40;99.90;;;;;;5059339;28;20530;-69
2022/12/06 08:51:28;;;;;;;29.73;23.87;;;5.30;99.90;;;;;;5059167;28;20588;-69
2022/12/06 08:53:57;;;;;;;29.23;23.53;;;5.20;99.90;;;;;;5062141;28;20482;-71
2022/12/06 08:56:25;;;;;;;25.37;22.00;;;5.40;99.90;;;;;;5058578;28;20487;-70
2022/12/06 08:58:53;;;;;;;29.67;22.97;;;5.40;99.90;;;;;;5060954;28;21030;-71
2022/12/06 09:01:21;;;;;;;24.33;21.27;;;5.40;99.90;;;;;;5053299;28;20461;-71
2022/12/06 09:03:48;;;;;;;25.10;22.47;;;5.40;99.90;;;;;;5062339;28;20467;-71
2022/12/06 09:06:16;;;;;;;24.63;21.93;;;5.50;99.90;;;;;;5058393;28;21090;-70
2022/12/06 09:08:43;;;;;;;33.87;23.10;;;5.50;99.90;;;;;;5056695;28;20489;-71
2022/12/06 09:11:11;;;;;;;27.33;21.37;;;5.60;99.90;;;;;;5059128;28;20451;-69
2022/12/06 09:13:38;;;;;;;25.73;22.23;;;5.50;99.90;;;;;;5054453;28;20460;-69
2022/12/06 09:16:07;;;;;;;25.67;22.60;;;5.50;99.90;;;;;;5064913;28;20482;-70
2022/12/06 09:18:34;;;;;;;25.67;22.90;;;5.60;99.90;;;;;;5059998;28;20466;-71
2022/12/06 09:21:05;;;;;;;24.50;22.20;;;5.50;99.90;;;;;;5062049;28;20557;-71
2022/12/06 09:23:32;;;;;;;23.87;21.63;;;5.60;99.90;;;;;;5061709;28;20473;-69
2022/12/06 09:25:59;;;;;;;23.50;21.20;;;5.40;99.90;;;;;;5060141;28;20974;-70
2022/12/06 09:28:28;;;;;;;28.43;22.90;;;5.50;99.90;;;;;;5055094;28;20502;-70
2022/12/06 09:30:55;;;;;;;28.13;23.00;;;5.50;99.90;;;;;;5054076;28;20495;-72
2022/12/06 09:33:23;;;;;;;28.20;22.30;;;5.40;99.90;;;;;;5060264;28;20475;-70
2022/12/06 09:35:50;;;;;;;25.77;21.70;;;5.60;99.90;;;;;;5055885;28;20908;-71
2022/12/06 09:38:18;;;;;;;22.33;20.33;;;5.60;99.90;;;;;;5060553;28;20643;-69
2022/12/06 09:40:59;;;;;;;23.00;20.60;;;5.70;99.90;;;;;;5050431;28;20463;-71
2022/12/06 09:43:39;;;;;;;24.97;22.60;;;5.50;99.90;;;;;;5059628;28;20554;-69
2022/12/06 09:46:23;;;;;;;24.67;19.63;;;5.50;99.90;;;;;;5055775;28;20562;-72
2022/12/06 09:49:11;;;;;;;24.93;19.57;;;5.60;99.90;;;;;;5054511;28;20482;-70
2022/12/06 09:51:52;;;;;;;23.57;20.97;;;5.60;99.90;;;;;;5059287;28;20510;-70
2022/12/06 09:54:34;;;;;;;28.73;21.07;;;5.70;99.90;;;;;;5061388;28;20463;-70
2022/12/06 09:57:07;;;;;;;21.30;19.20;;;5.80;99.90;;;;;;5054852;28;20523;-70
2022/12/06 09:59:44;;;;;;;28.30;22.87;;;5.60;99.90;;;;;;5052983;28;21090;-70
2022/12/06 10:02:35;;;;;;;23.47;20.57;;;5.80;99.90;;;;;;5054005;28;20962;-69
2022/12/06 10:05:24;;;;;;;22.30;18.07;;;5.70;99.90;;;;;;5051529;28;21077;-70
2022/12/06 10:08:02;;;;;;;21.00;19.10;;;5.70;99.90;;;;;;5058243;28;20507;-71
2022/12/06 10:10:38;;;;;;;23.03;19.13;;;5.80;99.90;;;;;;5057118;28;20467;-71
2022/12/06 10:13:12;;;;;;;20.33;17.60;;;5.70;99.90;;;;;;5061380;28;20465;-70
2022/12/06 10:15:52;;;;;;;20.67;18.77;;;5.70;99.90;;;;;;5055199;28;20822;-68
2022/12/06 10:18:44;;;;;;;20.70;18.80;;;5.90;99.90;;;;;;5056318;28;21860;-69
2022/12/06 10:21:17;;;;;;;20.57;18.23;;;5.70;99.90;;;;;;5052523;28;20471;-70
2022/12/06 10:23:56;;;;;;;21.20;19.10;;;5.80;99.90;;;;;;5057395;28;20468;-72
2022/12/06 10:26:32;;;;;;;23.03;18.57;;;5.70;99.90;;;;;;5055224;28;20483;-72
2022/12/06 10:29:07;;;;;;;20.43;18.53;;;5.90;99.90;;;;;;5057068;28;20913;-70
2022/12/06 10:31:47;;;;;;;21.73;18.10;;;6.10;99.90;;;;;;5060145;28;20455;-71
2022/12/06 10:34:21;;;;;;;20.50;18.53;;;6.10;99.90;;;;;;5055315;28;20465;-70
2022/12/06 10:36:59;;;;;;;23.53;18.77;;;6.20;99.90;;;;;;5061399;28;20793;-69
2022/12/06 10:39:31;;;;;;;19.80;17.87;;;6.20;99.90;;;;;;5055459;28;20469;-72
2022/12/06 10:42:03;;;;;;;21.80;18.40;;;6.30;99.90;;;;;;5056487;28;20474;-71
2022/12/06 10:44:35;;;;;;;20.90;18.70;;;6.40;99.90;;;;;;5057697;28;20830;-72
2022/12/06 10:47:07;;;;;;;19.07;17.10;;;6.40;99.90;;;;;;5055405;28;20503;-70
2022/12/06 10:49:41;;;;;;;21.57;18.80;;;6.40;99.90;;;;;;5057795;28;20534;-71
2022/12/06 10:52:20;;;;;;;20.43;18.17;;;6.50;99.90;;;;;;5060975;28;20483;-71
2022/12/06 10:55:02;;;;;;;19.23;17.10;;;6.50;99.90;;;;;;5058216;28;20498;-70
2022/12/06 10:57:36;;;;;;;19.77;17.67;;;6.40;99.90;;;;;;5059670;28;20965;-70
2022/12/06 11:00:06;;;;;;;23.37;17.10;;;6.40;99.90;;;;;;5060805;28;20478;-72
2022/12/06 11:02:40;;;;;;;18.70;17.10;;;6.50;99.90;;;;;;5054595;28;20473;-71
2022/12/06 11:05:17;;;;;;;23.40;17.50;;;6.60;99.90;;;;;;5057967;28;20489;-71
2022/12/06 11:07:48;;;;;;;19.37;17.50;;;6.70;99.90;;;;;;5055629;28;20501;-69
2022/12/06 11:10:19;;;;;;;20.87;16.23;;;6.80;99.90;;;;;;5052290;28;20470;-71
2022/12/06 11:13:06;;;;;;;18.03;16.13;;;6.80;99.90;;;;;;5053961;28;20463;-69
2022/12/06 11:15:38;;;;;;;18.93;16.67;;;6.70;99.90;;;;;;5053621;28;20475;-71
2022/12/06 11:18:12;;;;;;;18.43;16.57;;;6.60;99.90;;;;;;5052002;28;20464;-70
2022/12/06 11:20:44;;;;;;;17.90;16.30;;;6.60;99.90;;;;;;5048707;28;20478;-68
2022/12/06 11:23:17;;;;;;;18.70;16.30;;;6.60;99.90;;;;;;5053562;28;20464;-69
2022/12/06 11:25:59;;;;;;;17.60;15.90;;;6.60;99.90;;;;;;5058361;28;20463;-68
2022/12/06 11:28:36;;;;;;;17.60;16.10;;;6.60;99.90;;;;;;5057565;28;20952;-69
2022/12/06 11:31:11;;;;;;;20.77;17.30;;;6.70;99.90;;;;;;5058526;28;20884;-70
2022/12/06 11:33:40;;;;;;;19.60;17.90;;;6.60;99.90;;;;;;5060375;28;20461;-67
2022/12/06 11:36:08;;;;;;;20.07;18.10;;;6.60;99.90;;;;;;5060980;28;20469;-70
2022/12/06 11:38:36;;;;;;;18.87;17.17;;;6.70;99.90;;;;;;5060136;28;20474;-71
2022/12/06 11:41:08;;;;;;;18.67;16.97;;;6.80;99.90;;;;;;5061729;28;20462;-69
2022/12/06 11:43:36;;;;;;;18.17;16.57;;;6.70;99.90;;;;;;5060644;28;20464;-70
2022/12/06 11:46:05;;;;;;;19.50;17.60;;;6.70;99.90;;;;;;5066606;28;20827;-71
2022/12/06 11:48:34;;;;;;;18.80;17.10;;;6.60;99.90;;;;;;5063615;28;20563;-69
2022/12/06 11:51:03;;;;;;;17.13;15.73;;;6.90;99.90;;;;;;5060553;28;20493;-71
2022/12/06 11:53:33;;;;;;;17.13;15.50;;;6.70;99.90;;;;;;5056879;28;20546;-68
2022/12/06 11:56:06;;;;;;;18.17;16.57;;;6.80;99.90;;;;;;5061933;28;20470;-68
2022/12/06 11:58:38;;;;;;;17.07;15.60;;;6.80;99.90;;;;;;5061372;28;21108;-71
2022/12/06 12:01:09;;;;;;;18.93;17.27;;;6.60;99.90;;;;;;5058743;28;20468;-70
2022/12/06 12:03:38;;;;;;;18.00;16.50;;;6.50;99.90;;;;;;5058045;28;20518;-73
2022/12/06 12:06:17;;;;;;;16.80;15.47;;;6.50;99.90;;;;;;5062926;28;20690;-68
2022/12/06 12:08:54;;;;;;;17.37;15.67;;;6.50;99.90;;;;;;5053094;28;20494;-69
2022/12/06 12:11:22;;;;;;;16.47;15.10;;;6.70;99.90;;;;;;5057067;28;20534;-71
2022/12/06 12:13:51;;;;;;;18.17;16.33;;;6.90;99.90;;;;;;5063187;28;20538;-70
2022/12/06 12:16:20;;;;;;;21.00;15.90;;;6.80;99.90;;;;;;5058593;28;20979;-68
2022/12/06 12:18:55;;;;;;;18.93;17.03;;;6.70;99.90;;;;;;5065645;28;20458;-71
2022/12/06 12:21:41;;;;;;;17.60;15.97;;;6.70;99.90;;;;;;5058042;28;21052;-72
2022/12/06 12:24:41;;;;;;;16.83;15.33;;;6.80;99.90;;;;;;5058531;28;20715;-71
2022/12/06 12:27:34;;;;;;;17.10;15.70;;;6.90;99.90;;;;;;5056949;28;20806;-69
2022/12/06 12:30:25;;;;;;;17.00;15.40;;;6.80;99.90;;;;;;5055677;28;20657;-71
2022/12/06 12:33:10;;;;;;;17.00;15.43;;;6.80;99.90;;;;;;5051978;28;20459;-70
2022/12/06 12:35:38;;;;;;;16.87;15.30;;;6.70;99.90;;;;;;5057799;28;20464;-70
2022/12/06 12:38:18;;;;;;;16.57;15.13;;;6.70;99.90;;;;;;5060293;28;20464;-71
2022/12/06 12:40:48;;;;;;;16.07;14.87;;;6.90;99.90;;;;;;5060319;28;20456;-68
2022/12/06 12:43:19;;;;;;;16.80;15.20;;;7.00;99.90;;;;;;5059897;28;21056;-69
2022/12/06 12:46:16;;;;;;;17.03;15.63;;;7.20;99.90;;;;;;5059231;28;21178;-71
2022/12/06 12:48:45;;;;;;;16.17;14.77;;;7.90;99.90;;;;;;5050161;28;20514;-69
2022/12/06 12:51:32;;;;;;;18.27;16.70;;;8.30;99.90;;;;;;5056369;28;20578;-71
2022/12/06 12:54:02;;;;;;;17.80;16.50;;;8.30;99.90;;;;;;5050205;28;20464;-72
2022/12/06 12:56:33;;;;;;;19.03;17.23;;;8.10;99.90;;;;;;5053090;28;20579;-69
2022/12/06 12:59:03;;;;;;;16.87;15.67;;;7.90;99.90;;;;;;5058687;28;20822;-69
2022/12/06 13:01:38;;;;;;;17.43;15.50;;;7.80;99.90;;;;;;5060335;28;20779;-71
2022/12/06 13:04:15;;;;;;;16.77;15.40;;;7.50;99.90;;;;;;5052063;28;20482;-69
2022/12/06 13:06:48;;;;;;;18.27;16.57;;;7.30;99.90;;;;;;5058161;28;20574;-68
2022/12/06 13:09:23;;;;;;;17.53;16.07;;;7.20;99.90;;;;;;5054216;28;20497;-70
2022/12/06 13:11:57;;;;;;;16.57;15.27;;;7.00;99.90;;;;;;5056939;28;20966;-71
2022/12/06 13:14:32;;;;;;;16.47;15.37;;;7.40;99.90;;;;;;5054108;28;20473;-71
2022/12/06 13:17:05;;;;;;;16.47;15.37;;;7.90;99.90;;;;;;5057671;28;20459;-68
2022/12/06 13:19:38;;;;;;;16.93;15.70;;;8.30;99.90;;;;;;5056159;28;20716;-69
2022/12/06 13:22:14;;;;;;;16.90;15.80;;;8.70;99.90;;;;;;5051434;28;20466;-69